Time;durP1;ratioP1;P1;durP2;ratioP2;P2;SDS_P1;SDS_P2;PMS_P1;PMS_P2;Temp;Humidity;BMP_temperature;BMP_pressure;BME280_temperature;BME280_humidity;BME280_pressure;Samples;Min_cycle;Max_cycle;Signal;HPM_P1;HPM_P2
2022/04/04 00:00:52;;;;;;;8.52;7.63;;;;;;;;;;4955842;28;20571;-74
2022/04/04 00:03:18;;;;;;;9.73;7.60;;;;;;;;;;4956048;28;20195;-73
2022/04/04 00:05:44;;;;;;;7.65;6.95;;;;;;;;;;4970694;28;20986;-72
2022/04/04 00:08:10;;;;;;;8.63;7.75;;;;;;;;;;4955456;28;20184;-73
2022/04/04 00:10:36;;;;;;;10.23;7.40;;;;;;;;;;4955903;28;20186;-73
2022/04/04 00:13:02;;;;;;;9.35;7.05;;;;;;;;;;4956200;28;20310;-73
2022/04/04 00:15:28;;;;;;;14.40;7.15;;;;;;;;;;4955908;28;20186;-75
2022/04/04 00:17:55;;;;;;;7.05;6.35;;;;;;;;;;4955953;28;20298;-74
2022/04/04 00:20:22;;;;;;;13.48;6.90;;;;;;;;;;4955549;28;20257;-74
2022/04/04 00:22:48;;;;;;;10.35;7.15;;;;;;;;;;4955917;28;20240;-74
2022/04/04 00:25:14;;;;;;;8.37;7.43;;;;;;;;;;4955674;28;20249;-73
2022/04/04 00:27:41;;;;;;;7.93;6.60;;;;;;;;;;4955720;28;20413;-73
2022/04/04 00:30:07;;;;;;;11.25;6.70;;;;;;;;;;4970696;28;20480;-75
2022/04/04 00:32:36;;;;;;;10.13;6.50;;;;;;;;;;4955310;28;20209;-73
2022/04/04 00:35:02;;;;;;;9.27;6.95;;;;;;;;;;4955835;28;20233;-73
2022/04/04 00:37:28;;;;;;;8.55;7.65;;;;;;;;;;4955659;28;20584;-74
2022/04/04 00:39:54;;;;;;;7.28;6.57;;;;;;;;;;4955511;28;20186;-74
2022/04/04 00:42:20;;;;;;;6.97;6.28;;;;;;;;;;4970005;28;20212;-74
2022/04/04 00:44:46;;;;;;;9.23;8.00;;;;;;;;;;4955440;28;20208;-75
2022/04/04 00:47:12;;;;;;;8.50;7.35;;;;;;;;;;4955178;28;20418;-74
2022/04/04 00:49:38;;;;;;;8.80;7.90;;;;;;;;;;4955261;28;20174;-73
2022/04/04 00:52:05;;;;;;;11.57;7.78;;;;;;;;;;4954777;28;20229;-73
2022/04/04 00:54:31;;;;;;;10.25;8.00;;;;;;;;;;4955236;28;20198;-73
2022/04/04 00:56:58;;;;;;;12.73;8.85;;;;;;;;;;4955195;28;20264;-72
2022/04/04 00:59:24;;;;;;;8.82;7.18;;;;;;;;;;4955151;28;20189;-75
2022/04/04 01:01:50;;;;;;;12.23;8.05;;;;;;;;;;4969456;28;20676;-73
2022/04/04 01:04:16;;;;;;;8.90;7.57;;;;;;;;;;4955096;28;20192;-73
2022/04/04 01:06:46;;;;;;;9.65;8.57;;;;;;;;;;4969915;28;20270;-75
2022/04/04 01:09:15;;;;;;;10.02;8.15;;;;;;;;;;4955215;28;20176;-74
2022/04/04 01:12:06;;;;;;;10.95;9.10;;;;;;;;;;4954612;28;20204;-72
2022/04/04 01:14:32;;;;;;;10.65;7.63;;;;;;;;;;4951319;28;20309;-75
2022/04/04 01:16:58;;;;;;;9.43;8.50;;;;;;;;;;4955088;28;20178;-74
2022/04/04 01:19:24;;;;;;;9.80;7.85;;;;;;;;;;4971137;28;20706;-73
2022/04/04 01:21:50;;;;;;;11.60;8.55;;;;;;;;;;4958824;28;20209;-75
2022/04/04 01:24:18;;;;;;;12.03;8.67;;;;;;;;;;4959018;28;20273;-73
2022/04/04 01:26:48;;;;;;;9.80;8.80;;;;;;;;;;4959175;28;20417;-74
2022/04/04 01:29:14;;;;;;;10.68;8.70;;;;;;;;;;4959040;28;20183;-72
2022/04/04 01:31:40;;;;;;;14.30;9.90;;;;;;;;;;4958644;28;20746;-72
2022/04/04 01:34:06;;;;;;;12.02;9.25;;;;;;;;;;4973504;28;20436;-75
2022/04/04 01:36:32;;;;;;;9.65;8.65;;;;;;;;;;4958888;28;20222;-73
2022/04/04 01:38:58;;;;;;;9.95;8.73;;;;;;;;;;4958821;28;20205;-73
2022/04/04 01:41:25;;;;;;;10.80;9.70;;;;;;;;;;4958348;28;20669;-74
2022/04/04 01:43:51;;;;;;;11.23;9.10;;;;;;;;;;4958760;28;20406;-73
2022/04/04 01:46:24;;;;;;;12.15;9.90;;;;;;;;;;4958543;28;20210;-73
2022/04/04 01:48:50;;;;;;;15.82;10.30;;;;;;;;;;4958764;28;20222;-74
2022/04/04 01:51:16;;;;;;;9.95;8.55;;;;;;;;;;4958156;28;20233;-72
2022/04/04 01:53:42;;;;;;;18.77;9.00;;;;;;;;;;4973345;28;20191;-74
2022/04/04 01:56:08;;;;;;;11.70;8.85;;;;;;;;;;4958339;28;20186;-75
2022/04/04 01:58:35;;;;;;;12.48;8.57;;;;;;;;;;4958306;28;20268;-73
2022/04/04 02:01:01;;;;;;;11.18;9.00;;;;;;;;;;4957970;28;20196;-73
2022/04/04 02:03:35;;;;;;;10.77;9.38;;;;;;;;;;4958298;28;20237;-73
2022/04/04 02:06:02;;;;;;;12.82;9.10;;;;;;;;;;4958184;28;20232;-74
2022/04/04 02:08:28;;;;;;;9.65;8.50;;;;;;;;;;4958087;28;20179;-74
2022/04/04 02:10:54;;;;;;;10.65;9.55;;;;;;;;;;4957953;28;20282;-74
2022/04/04 02:13:23;;;;;;;12.80;9.98;;;;;;;;;;4958344;28;20182;-75
2022/04/04 02:15:49;;;;;;;10.27;9.18;;;;;;;;;;4958384;28;20651;-71
2022/04/04 02:18:15;;;;;;;14.10;9.30;;;;;;;;;;4957004;28;20193;-72
2022/04/04 02:20:40;;;;;;;10.50;9.20;;;;;;;;;;4972445;28;20924;-74
2022/04/04 02:23:07;;;;;;;11.43;9.57;;;;;;;;;;4958084;28;20520;-73
2022/04/04 02:25:33;;;;;;;11.80;9.48;;;;;;;;;;4957909;28;20575;-74
2022/04/04 02:27:59;;;;;;;11.60;9.43;;;;;;;;;;4957844;28;20182;-75
2022/04/04 02:30:25;;;;;;;14.43;9.57;;;;;;;;;;4957094;28;20176;-72
2022/04/04 02:32:51;;;;;;;14.23;9.00;;;;;;;;;;4957355;28;20200;-74
2022/04/04 02:35:18;;;;;;;11.70;9.00;;;;;;;;;;4957495;28;20910;-75
2022/04/04 02:37:44;;;;;;;13.50;9.30;;;;;;;;;;4957989;28;20215;-73
2022/04/04 02:40:10;;;;;;;11.93;9.40;;;;;;;;;;4957380;28;20186;-73
2022/04/04 02:42:36;;;;;;;14.95;9.13;;;;;;;;;;4957400;28;20674;-74
2022/04/04 02:45:03;;;;;;;12.00;9.07;;;;;;;;;;4957478;28;20345;-73
2022/04/04 02:47:29;;;;;;;9.93;8.15;;;;;;;;;;4957508;28;20205;-73
2022/04/04 02:49:55;;;;;;;13.37;9.97;;;;;;;;;;4957467;28;20646;-74
2022/04/04 02:52:21;;;;;;;17.13;10.25;;;;;;;;;;4956892;28;20452;-73
2022/04/04 02:54:47;;;;;;;14.27;10.00;;;;;;;;;;4957285;28;20177;-74
2022/04/04 02:57:14;;;;;;;11.88;8.75;;;;;;;;;;4957329;28;20201;-73
2022/04/04 02:59:40;;;;;;;10.80;9.52;;;;;;;;;;4957253;28;20226;-73
2022/04/04 03:02:06;;;;;;;12.30;9.40;;;;;;;;;;4956874;28;20195;-73
2022/04/04 03:04:32;;;;;;;12.70;9.65;;;;;;;;;;4957036;28;20247;-72
2022/04/04 03:07:00;;;;;;;14.18;10.25;;;;;;;;;;4957127;28;20181;-74
2022/04/04 03:09:26;;;;;;;14.75;8.57;;;;;;;;;;4957022;28;20206;-75
2022/04/04 03:11:52;;;;;;;14.93;10.00;;;;;;;;;;4971570;28;20241;-73
2022/04/04 03:14:18;;;;;;;15.20;9.98;;;;;;;;;;4957106;28;20414;-73
2022/04/04 03:16:44;;;;;;;12.57;9.77;;;;;;;;;;4956951;28;20172;-73
2022/04/04 03:19:10;;;;;;;12.98;9.65;;;;;;;;;;4956800;28;20515;-75
2022/04/04 03:21:36;;;;;;;13.05;9.35;;;;;;;;;;4956428;28;20202;-73
2022/04/04 03:24:02;;;;;;;12.63;10.07;;;;;;;;;;4957120;28;20291;-72
2022/04/04 03:26:31;;;;;;;14.27;9.50;;;;;;;;;;4957028;28;20473;-74
2022/04/04 03:28:57;;;;;;;13.30;9.75;;;;;;;;;;4956722;28;20942;-74
2022/04/04 03:31:23;;;;;;;15.27;10.68;;;;;;;;;;4956303;28;20708;-73
2022/04/04 03:33:49;;;;;;;10.70;9.33;;;;;;;;;;4956638;28;20178;-73
2022/04/04 03:36:15;;;;;;;11.18;10.00;;;;;;;;;;4956750;28;20940;-73
2022/04/04 03:38:41;;;;;;;10.85;9.20;;;;;;;;;;4956696;28;20178;-74
2022/04/04 03:41:07;;;;;;;15.43;10.27;;;;;;;;;;4956051;28;20274;-73
2022/04/04 03:43:33;;;;;;;15.57;11.17;;;;;;;;;;4956452;28;20294;-73
2022/04/04 03:45:59;;;;;;;15.70;10.70;;;;;;;;;;4956164;28;20833;-73
2022/04/04 03:48:25;;;;;;;15.88;12.85;;;;;;;;;;4956439;28;20187;-72
2022/04/04 03:50:54;;;;;;;14.43;10.90;;;;;;;;;;4955990;28;20178;-73
2022/04/04 03:53:21;;;;;;;16.75;10.38;;;;;;;;;;4956338;28;20233;-74
2022/04/04 03:55:48;;;;;;;13.43;10.60;;;;;;;;;;4956340;28;20265;-74
2022/04/04 03:58:14;;;;;;;16.55;10.60;;;;;;;;;;4956142;28;20190;-72
2022/04/04 04:00:41;;;;;;;17.65;11.13;;;;;;;;;;4955846;28;20186;-72
2022/04/04 04:03:07;;;;;;;13.68;10.32;;;;;;;;;;4955944;28;20256;-73
2022/04/04 04:05:33;;;;;;;15.98;12.02;;;;;;;;;;4970788;28;20736;-73
2022/04/04 04:07:59;;;;;;;14.55;12.05;;;;;;;;;;4955889;28;20189;-72
2022/04/04 04:10:25;;;;;;;13.88;11.32;;;;;;;;;;4955569;28;20178;-74
2022/04/04 04:12:52;;;;;;;15.30;10.73;;;;;;;;;;4955839;28;20205;-74
2022/04/04 04:15:23;;;;;;;17.15;11.63;;;;;;;;;;4956000;28;20183;-73
2022/04/04 04:17:52;;;;;;;15.85;10.82;;;;;;;;;;4956052;28;20177;-74
2022/04/04 04:20:33;;;;;;;21.73;11.48;;;;;;;;;;4955659;28;20202;-73
2022/04/04 04:23:01;;;;;;;18.95;11.80;;;;;;;;;;4956032;28;20180;-73
2022/04/04 04:25:28;;;;;;;17.75;11.35;;;;;;;;;;4955689;28;20198;-73
2022/04/04 04:27:55;;;;;;;19.77;12.23;;;;;;;;;;4955739;28;20175;-75
2022/04/04 04:30:21;;;;;;;17.15;12.18;;;;;;;;;;4955333;28;20523;-73
2022/04/04 04:32:49;;;;;;;20.90;11.93;;;;;;;;;;4955747;28;20217;-72
2022/04/04 04:35:15;;;;;;;17.48;12.13;;;;;;;;;;4955454;28;20790;-74
2022/04/04 04:37:42;;;;;;;16.52;11.55;;;;;;;;;;4955541;28;20180;-73
2022/04/04 04:40:08;;;;;;;16.63;10.52;;;;;;;;;;4955638;28;20179;-72
2022/04/04 04:42:35;;;;;;;15.65;11.02;;;;;;;;;;4955394;28;20275;-74
2022/04/04 04:45:05;;;;;;;16.50;10.20;;;;;;;;;;4955456;28;20266;-75
2022/04/04 04:47:32;;;;;;;14.65;10.07;;;;;;;;;;4955529;28;20178;-72
2022/04/04 04:49:58;;;;;;;11.23;8.10;;;;;;;;;;4955402;28;20183;-74
2022/04/04 04:52:25;;;;;;;11.57;8.27;;;;;;;;;;4954681;28;20221;-71
2022/04/04 04:54:51;;;;;;;13.93;8.23;;;;;;;;;;4954987;28;20212;-73
2022/04/04 04:57:17;;;;;;;12.82;8.07;;;;;;;;;;4955346;28;20184;-74
2022/04/04 04:59:43;;;;;;;11.35;7.57;;;;;;;;;;4955106;28;20576;-73
2022/04/04 05:02:09;;;;;;;13.50;7.77;;;;;;;;;;4954830;28;20209;-71
2022/04/04 05:04:35;;;;;;;10.20;7.55;;;;;;;;;;4955084;28;20959;-74
2022/04/04 05:07:01;;;;;;;10.68;7.47;;;;;;;;;;4955319;28;20184;-73
2022/04/04 05:09:27;;;;;;;11.90;6.73;;;;;;;;;;4955136;28;20189;-73
2022/04/04 05:11:53;;;;;;;11.13;8.15;;;;;;;;;;4954574;28;20435;-73
2022/04/04 05:14:19;;;;;;;12.95;9.20;;;;;;;;;;4955182;28;20199;-73
2022/04/04 05:16:46;;;;;;;10.57;7.15;;;;;;;;;;4955310;28;20605;-72
2022/04/04 05:19:12;;;;;;;11.35;7.47;;;;;;;;;;4955109;28;20187;-73
2022/04/04 05:21:39;;;;;;;9.65;7.47;;;;;;;;;;4954668;28;20199;-74
2022/04/04 05:24:08;;;;;;;9.35;7.97;;;;;;;;;;4954850;28;20177;-72
2022/04/04 05:26:34;;;;;;;10.98;7.20;;;;;;;;;;4954909;28;20215;-72
2022/04/04 05:29:00;;;;;;;11.02;7.40;;;;;;;;;;4955160;28;20213;-72
2022/04/04 05:31:26;;;;;;;10.65;7.28;;;;;;;;;;4954635;28;20288;-73
2022/04/04 05:33:54;;;;;;;8.38;6.70;;;;;;;;;;4955067;28;20178;-72
2022/04/04 05:36:20;;;;;;;10.48;6.07;;;;;;;;;;4969770;28;20182;-73
2022/04/04 05:38:46;;;;;;;11.70;6.70;;;;;;;;;;4955090;28;20198;-74
2022/04/04 05:41:12;;;;;;;9.13;7.57;;;;;;;;;;4954479;28;20728;-72
2022/04/04 05:43:38;;;;;;;7.82;6.88;;;;;;;;;;4954793;28;20214;-72
2022/04/04 05:46:04;;;;;;;9.40;6.93;;;;;;;;;;4954736;28;20316;-73
2022/04/04 05:48:31;;;;;;;9.13;6.15;;;;;;;;;;4954883;28;20212;-74
2022/04/04 05:50:57;;;;;;;9.88;6.82;;;;;;;;;;4954338;28;20192;-73
2022/04/04 05:53:23;;;;;;;11.27;6.68;;;;;;;;;;4969496;28;20622;-75
2022/04/04 05:55:49;;;;;;;12.18;7.30;;;;;;;;;;4954638;28;20652;-75
2022/04/04 05:58:15;;;;;;;12.73;7.30;;;;;;;;;;4954633;28;20190;-74
2022/04/04 06:00:41;;;;;;;11.07;8.10;;;;;;;;;;4954395;28;20960;-74
2022/04/04 06:03:07;;;;;;;11.50;7.05;;;;;;;;;;4954599;28;20423;-73
2022/04/04 06:05:34;;;;;;;12.97;6.70;;;;;;;;;;4953248;28;20262;-73
2022/04/04 06:08:01;;;;;;;8.57;6.75;;;;;;;;;;4957904;28;20406;-73
2022/04/04 06:10:27;;;;;;;14.25;7.10;;;;;;;;;;4957833;28;20262;-72
2022/04/04 06:12:53;;;;;;;8.57;7.03;;;;;;;;;;4958195;28;20702;-73
2022/04/04 06:15:20;;;;;;;11.50;7.82;;;;;;;;;;4958097;28;20183;-73
2022/04/04 06:17:47;;;;;;;10.15;7.20;;;;;;;;;;4958102;28;20194;-74
2022/04/04 06:20:13;;;;;;;12.20;6.75;;;;;;;;;;4957771;28;20178;-72
2022/04/04 06:22:40;;;;;;;10.55;7.00;;;;;;;;;;4957949;28;20225;-74
2022/04/04 06:25:10;;;;;;;8.82;7.05;;;;;;;;;;4958052;28;20209;-73
2022/04/04 06:27:36;;;;;;;10.48;6.43;;;;;;;;;;4958241;28;20225;-72
2022/04/04 06:30:06;;;;;;;6.60;5.65;;;;;;;;;;4958042;28;20178;-73
2022/04/04 06:32:33;;;;;;;10.70;6.70;;;;;;;;;;4957403;28;20194;-74
2022/04/04 06:34:59;;;;;;;8.98;5.97;;;;;;;;;;4957849;28;20548;-74
2022/04/04 06:37:25;;;;;;;8.63;6.90;;;;;;;;;;4972581;28;20187;-74
2022/04/04 06:39:51;;;;;;;6.93;6.20;;;;;;;;;;4957728;28;20866;-73
2022/04/04 06:42:17;;;;;;;9.43;6.50;;;;;;;;;;4972102;28;20229;-73
2022/04/04 06:44:43;;;;;;;5.80;5.30;;;;;;;;;;4957721;28;20249;-75
2022/04/04 06:47:10;;;;;;;5.68;4.35;;;;;;;;;;4957689;28;20718;-74
2022/04/04 06:49:36;;;;;;;6.45;4.50;;;;;;;;;;4957614;28;20225;-73
2022/04/04 06:52:02;;;;;;;6.50;5.00;;;;;;;;;;4957095;28;20263;-74
2022/04/04 06:54:28;;;;;;;8.40;4.20;;;;;;;;;;4956963;28;20817;-73
2022/04/04 06:56:55;;;;;;;5.87;3.60;;;;;;;;;;4956975;28;20218;-72
2022/04/04 06:59:21;;;;;;;4.80;3.75;;;;;;;;;;4957149;28;20533;-73
2022/04/04 07:01:49;;;;;;;6.30;4.25;;;;;;;;;;4956638;28;20222;-74
2022/04/04 07:04:15;;;;;;;4.97;4.47;;;;;;;;;;4956756;28;20260;-74
2022/04/04 07:06:41;;;;;;;5.53;3.57;;;;;;;;;;4956829;28;20320;-73
2022/04/04 07:09:08;;;;;;;6.50;3.45;;;;;;;;;;4957079;28;20415;-73
2022/04/04 07:11:35;;;;;;;4.18;3.17;;;;;;;;;;4956681;28;20560;-72
2022/04/04 07:14:02;;;;;;;4.55;3.05;;;;;;;;;;4957071;28;20181;-74
2022/04/04 07:16:28;;;;;;;3.90;2.95;;;;;;;;;;4955591;28;20641;-74
2022/04/04 07:18:54;;;;;;;4.25;3.40;;;;;;;;;;4956562;28;20188;-74
2022/04/04 07:21:22;;;;;;;6.10;3.20;;;;;;;;;;4956651;28;20222;-73
2022/04/04 07:23:48;;;;;;;5.03;2.75;;;;;;;;;;4956950;28;20416;-74
2022/04/04 07:26:19;;;;;;;7.43;2.75;;;;;;;;;;4956922;28;20216;-73
2022/04/04 07:28:45;;;;;;;4.75;2.65;;;;;;;;;;4956654;28;20176;-73
2022/04/04 07:31:11;;;;;;;3.55;2.60;;;;;;;;;;4956196;28;20288;-75
2022/04/04 07:33:37;;;;;;;3.58;2.55;;;;;;;;;;4955673;29;20206;-73
2022/04/04 07:36:03;;;;;;;5.17;2.53;;;;;;;;;;4971680;28;20184;-74
2022/04/04 07:38:29;;;;;;;3.35;2.10;;;;;;;;;;4971669;28;20904;-75
2022/04/04 07:40:55;;;;;;;3.13;2.47;;;;;;;;;;4971075;28;20685;-72
2022/04/04 07:43:21;;;;;;;4.97;2.20;;;;;;;;;;4956766;28;20342;-73
2022/04/04 07:45:47;;;;;;;2.17;1.95;;;;;;;;;;4956586;28;20531;-73
2022/04/04 07:48:13;;;;;;;2.87;2.50;;;;;;;;;;4956604;28;20192;-74
2022/04/04 07:50:41;;;;;;;14.73;2.40;;;;;;;;;;4956063;28;20782;-74
2022/04/04 07:53:07;;;;;;;2.28;2.05;;;;;;;;;;4956274;28;20436;-74
2022/04/04 07:55:36;;;;;;;2.07;1.87;;;;;;;;;;4956359;28;20636;-73
2022/04/04 07:58:02;;;;;;;2.70;2.45;;;;;;;;;;4956296;28;20565;-73
2022/04/04 08:00:28;;;;;;;4.35;2.70;;;;;;;;;;4954829;29;20188;-73
2022/04/04 08:02:55;;;;;;;3.00;2.25;;;;;;;;;;4956114;28;20208;-73
2022/04/04 08:05:23;;;;;;;3.90;2.70;;;;;;;;;;4970961;28;20701;-73
2022/04/04 08:07:51;;;;;;;3.25;2.75;;;;;;;;;;4956091;28;20291;-74
2022/04/04 08:10:17;;;;;;;2.60;2.40;;;;;;;;;;4955794;28;20193;-73
2022/04/04 08:12:43;;;;;;;3.65;3.00;;;;;;;;;;4955976;28;20202;-73
2022/04/04 08:15:10;;;;;;;2.88;2.50;;;;;;;;;;4955880;28;20180;-74
2022/04/04 08:17:36;;;;;;;4.53;2.90;;;;;;;;;;4954751;29;20174;-74
2022/04/04 08:20:03;;;;;;;3.70;2.28;;;;;;;;;;4955949;28;20232;-73
2022/04/04 08:22:29;;;;;;;2.50;2.30;;;;;;;;;;4955614;28;20282;-73
2022/04/04 08:24:55;;;;;;;2.73;2.40;;;;;;;;;;4970892;28;20295;-73
2022/04/04 08:27:22;;;;;;;2.40;2.20;;;;;;;;;;4970810;28;20408;-74
2022/04/04 08:29:48;;;;;;;3.58;2.38;;;;;;;;;;4955298;28;20176;-74
2022/04/04 08:32:14;;;;;;;3.15;2.70;;;;;;;;;;4955459;28;20193;-73
2022/04/04 08:34:41;;;;;;;3.42;2.83;;;;;;;;;;4955856;28;20177;-73
2022/04/04 08:37:07;;;;;;;7.88;2.42;;;;;;;;;;4970447;28;20694;-73
2022/04/04 08:39:33;;;;;;;2.83;2.30;;;;;;;;;;4955584;28;20195;-73
2022/04/04 08:41:59;;;;;;;4.72;2.47;;;;;;;;;;4955236;28;20295;-74
2022/04/04 08:44:25;;;;;;;2.80;2.50;;;;;;;;;;4955394;28;20177;-73
2022/04/04 08:46:51;;;;;;;4.07;2.80;;;;;;;;;;4955513;28;20182;-73
2022/04/04 08:49:18;;;;;;;5.07;2.70;;;;;;;;;;4970169;28;20635;-73
2022/04/04 08:51:44;;;;;;;2.97;2.10;;;;;;;;;;4953946;28;20693;-74
2022/04/04 08:54:10;;;;;;;2.60;2.20;;;;;;;;;;4954458;29;20188;-74
2022/04/04 08:56:36;;;;;;;3.80;2.87;;;;;;;;;;4955478;28;20186;-75
2022/04/04 08:59:02;;;;;;;3.37;2.73;;;;;;;;;;4970216;28;20452;-74
2022/04/04 09:01:28;;;;;;;3.67;3.25;;;;;;;;;;4954849;28;20522;-74
2022/04/04 09:04:03;;;;;;;3.80;2.75;;;;;;;;;;4955343;28;20650;-74
2022/04/04 09:06:29;;;;;;;4.60;2.65;;;;;;;;;;4955135;28;20218;-73
2022/04/04 09:08:56;;;;;;;4.35;3.03;;;;;;;;;;4955156;28;20533;-74
2022/04/04 09:11:22;;;;;;;3.33;2.72;;;;;;;;;;4954540;28;20193;-74
2022/04/04 09:14:06;;;;;;;3.60;3.28;;;;;;;;;;4955179;28;20208;-73
2022/04/04 09:16:32;;;;;;;3.47;3.10;;;;;;;;;;4955101;28;20183;-73
2022/04/04 09:18:58;;;;;;;5.57;3.00;;;;;;;;;;4955131;28;20264;-74
2022/04/04 09:21:24;;;;;;;3.20;2.90;;;;;;;;;;4954585;28;20569;-74
2022/04/04 09:23:54;;;;;;;3.40;2.60;;;;;;;;;;4955118;28;20188;-74
2022/04/04 09:26:37;;;;;;;3.42;2.97;;;;;;;;;;4955121;28;20204;-73
2022/04/04 09:29:08;;;;;;;3.20;2.75;;;;;;;;;;4955115;28;20184;-73
2022/04/04 09:31:34;;;;;;;6.80;3.08;;;;;;;;;;4954504;28;20197;-74
2022/04/04 09:34:04;;;;;;;5.50;2.60;;;;;;;;;;4955055;28;20263;-75
2022/04/04 09:36:31;;;;;;;4.78;3.50;;;;;;;;;;4955157;28;20447;-73
2022/04/04 09:39:03;;;;;;;10.52;3.40;;;;;;;;;;4955139;28;20185;-73
2022/04/04 09:41:30;;;;;;;4.38;3.55;;;;;;;;;;4972440;28;20661;-73
2022/04/04 09:44:00;;;;;;;6.93;3.65;;;;;;;;;;4958918;28;20191;-72
2022/04/04 09:46:33;;;;;;;3.90;3.08;;;;;;;;;;4958695;28;20207;-74
2022/04/04 09:49:03;;;;;;;3.00;2.58;;;;;;;;;;4958849;28;20180;-73
2022/04/04 09:51:46;;;;;;;4.35;3.33;;;;;;;;;;4958249;28;20274;-74
2022/04/04 09:54:23;;;;;;;5.35;3.78;;;;;;;;;;4958541;28;20247;-74
2022/04/04 09:56:50;;;;;;;4.47;3.53;;;;;;;;;;4958669;28;20197;-74
2022/04/04 09:59:17;;;;;;;5.65;3.72;;;;;;;;;;4958513;28;20188;-74
2022/04/04 10:01:44;;;;;;;5.80;4.00;;;;;;;;;;4957990;28;20628;-75
2022/04/04 10:04:14;;;;;;;5.88;3.70;;;;;;;;;;4958445;28;20185;-74
2022/04/04 10:06:42;;;;;;;3.65;2.80;;;;;;;;;;4958296;28;20212;-72
2022/04/04 10:09:08;;;;;;;5.50;4.63;;;;;;;;;;4958375;28;20227;-73
2022/04/04 10:11:37;;;;;;;4.28;3.65;;;;;;;;;;4957821;28;20189;-73
2022/04/04 10:14:03;;;;;;;5.05;3.78;;;;;;;;;;4958116;28;20180;-74
2022/04/04 10:16:30;;;;;;;4.50;3.95;;;;;;;;;;4958151;28;20181;-74
2022/04/04 10:19:00;;;;;;;6.70;3.65;;;;;;;;;;4958276;28;20173;-73
2022/04/04 10:21:27;;;;;;;4.95;4.45;;;;;;;;;;4957574;28;20200;-73
2022/04/04 10:23:58;;;;;;;3.50;3.20;;;;;;;;;;4957803;28;20185;-73
2022/04/04 10:26:32;;;;;;;5.97;4.15;;;;;;;;;;4957893;28;20292;-74
2022/04/04 10:29:11;;;;;;;6.00;4.30;;;;;;;;;;4958000;28;20176;-74
2022/04/04 10:31:47;;;;;;;5.78;3.85;;;;;;;;;;4957569;28;20208;-74
2022/04/04 10:34:21;;;;;;;4.70;3.47;;;;;;;;;;4957803;28;20672;-74
2022/04/04 10:37:14;;;;;;;5.35;3.63;;;;;;;;;;4957904;28;20273;-73
2022/04/04 10:39:43;;;;;;;5.15;3.78;;;;;;;;;;4957605;29;20215;-73
2022/04/04 10:42:25;;;;;;;4.03;3.70;;;;;;;;;;4957353;28;20199;-74
2022/04/04 10:44:57;;;;;;;4.65;4.05;;;;;;;;;;4957750;28;20208;-73
2022/04/04 10:47:24;;;;;;;5.03;3.35;;;;;;;;;;4957733;28;20184;-74
2022/04/04 10:49:50;;;;;;;4.85;2.85;;;;;;;;;;4957663;28;20187;-73
2022/04/04 10:52:23;;;;;;;4.45;3.78;;;;;;;;;;4956252;28;20204;-74
2022/04/04 10:54:49;;;;;;;4.45;3.83;;;;;;;;;;4957811;28;20283;-73
2022/04/04 10:57:19;;;;;;;4.38;3.33;;;;;;;;;;4957531;28;20177;-73
2022/04/04 10:59:45;;;;;;;3.60;3.30;;;;;;;;;;4957602;28;20173;-73
2022/04/04 11:02:14;;;;;;;4.45;3.58;;;;;;;;;;4957200;28;20205;-74
2022/04/04 11:07:38;;;;;;;8.45;3.55;;;;;;;;;;4957335;28;20173;-73
2022/04/04 11:07:39;;;;;;;3.95;3.28;;;;;;;;;;4957435;28;20542;-73
2022/04/04 11:10:06;;;;;;;5.50;3.53;;;;;;;;;;4957217;28;20216;-74
2022/04/04 11:12:51;;;;;;;5.07;3.47;;;;;;;;;;4956737;28;20590;-72
2022/04/04 11:15:17;;;;;;;6.68;2.75;;;;;;;;;;4957156;28;20180;-73
2022/04/04 11:17:57;;;;;;;7.60;4.37;;;;;;;;;;4957358;28;20188;-74
2022/04/04 11:20:32;;;;;;;4.60;3.10;;;;;;;;;;4956637;28;20416;-73
2022/04/04 11:23:04;;;;;;;4.75;3.13;;;;;;;;;;4957215;28;20595;-73
2022/04/04 11:25:34;;;;;;;4.70;3.45;;;;;;;;;;4957078;28;20211;-73
2022/04/04 11:28:00;;;;;;;3.97;3.55;;;;;;;;;;4955995;29;20169;-73
2022/04/04 11:30:27;;;;;;;8.40;3.00;;;;;;;;;;4971436;28;20551;-73
2022/04/04 11:32:54;;;;;;;13.10;4.40;;;;;;;;;;4971535;28;20756;-74
2022/04/04 11:35:27;;;;;;;10.63;4.50;;;;;;;;;;4956796;28;20198;-73
2022/04/04 11:37:56;;;;;;;5.85;4.03;;;;;;;;;;4956729;28;20267;-74
2022/04/04 11:40:29;;;;;;;8.98;4.35;;;;;;;;;;4970965;28;20184;-73
2022/04/04 11:42:55;;;;;;;7.88;4.20;;;;;;;;;;4956546;28;20216;-74
2022/04/04 11:45:22;;;;;;;5.28;3.85;;;;;;;;;;4955459;28;20212;-74
2022/04/04 11:47:49;;;;;;;6.55;4.60;;;;;;;;;;4956527;28;20184;-74
2022/04/04 11:50:15;;;;;;;6.38;4.50;;;;;;;;;;4956273;28;20564;-73
2022/04/04 11:52:52;;;;;;;7.93;4.78;;;;;;;;;;4956252;28;20224;-73
2022/04/04 11:55:19;;;;;;;6.13;4.00;;;;;;;;;;4956453;28;20184;-73
2022/04/04 11:57:46;;;;;;;9.20;4.72;;;;;;;;;;4956576;28;20565;-74
2022/04/04 12:00:20;;;;;;;13.95;6.20;;;;;;;;;;4956011;28;20185;-73
2022/04/04 12:02:47;;;;;;;9.48;4.75;;;;;;;;;;4956052;28;20203;-74
2022/04/04 12:05:14;;;;;;;6.15;4.28;;;;;;;;;;4970049;28;20633;-74
2022/04/04 12:07:41;;;;;;;6.15;4.20;;;;;;;;;;4939189;29;20189;-74
2022/04/04 12:10:07;;;;;;;7.03;5.25;;;;;;;;;;4956046;28;20271;-73
2022/04/04 12:12:33;;;;;;;5.90;4.50;;;;;;;;;;4955619;28;20197;-77
2022/04/04 12:14:59;;;;;;;6.77;5.10;;;;;;;;;;4955996;28;20196;-75
2022/04/04 12:17:26;;;;;;;4.63;4.23;;;;;;;;;;4955949;28;20430;-74
2022/04/04 12:19:52;;;;;;;6.93;5.20;;;;;;;;;;4955874;28;20448;-74
2022/04/04 12:25:05;;;;;;;6.03;4.05;;;;;;;;;;4955861;28;20218;-75
2022/04/04 12:27:31;;;;;;;7.68;4.97;;;;;;;;;;4955784;28;20208;-75
2022/04/04 12:29:59;;;;;;;6.97;6.28;;;;;;;;;;4955689;28;20264;-75
2022/04/04 12:32:25;;;;;;;8.38;6.95;;;;;;;;;;4955379;28;20203;-75
2022/04/04 12:34:55;;;;;;;6.95;6.25;;;;;;;;;;4955892;28;20241;-75
2022/04/04 12:37:31;;;;;;;11.15;6.75;;;;;;;;;;4955773;28;20188;-75
2022/04/04 12:40:11;;;;;;;10.35;6.20;;;;;;;;;;4955808;28;20180;-74
2022/04/04 12:42:37;;;;;;;7.25;6.50;;;;;;;;;;4955760;28;20199;-75
2022/04/04 12:45:04;;;;;;;8.85;7.40;;;;;;;;;;4955488;28;20211;-74
2022/04/04 12:47:30;;;;;;;6.60;5.95;;;;;;;;;;4955664;28;20542;-76
2022/04/04 12:50:12;;;;;;;9.65;6.38;;;;;;;;;;4955559;28;20249;-75
2022/04/04 12:52:56;;;;;;;6.72;6.03;;;;;;;;;;4955185;28;20235;-74
2022/04/04 12:55:22;;;;;;;10.15;7.05;;;;;;;;;;4955202;28;20180;-74
2022/04/04 12:57:48;;;;;;;9.53;8.13;;;;;;;;;;4955339;28;20191;-75
2022/04/04 13:00:25;;;;;;;9.20;7.35;;;;;;;;;;4954909;28;20490;-75
2022/04/04 13:02:51;;;;;;;8.30;7.05;;;;;;;;;;4955186;28;20212;-74
2022/04/04 13:05:21;;;;;;;18.27;7.43;;;;;;;;;;4955279;28;20219;-74
2022/04/04 13:07:57;;;;;;;9.27;7.57;;;;;;;;;;4970054;28;20180;-75
2022/04/04 13:10:28;;;;;;;10.35;6.85;;;;;;;;;;4954899;28;20267;-73
2022/04/04 13:13:10;;;;;;;6.88;5.80;;;;;;;;;;4955122;28;20204;-74
2022/04/04 13:15:36;;;;;;;11.68;7.75;;;;;;;;;;4954774;28;20207;-74
2022/04/04 13:18:03;;;;;;;11.43;8.32;;;;;;;;;;4954996;28;20575;-74
2022/04/04 13:20:29;;;;;;;7.60;6.80;;;;;;;;;;4954767;28;20188;-74
2022/04/04 13:22:55;;;;;;;9.23;6.95;;;;;;;;;;4954981;28;20210;-73
2022/04/04 13:25:20;;;;;;;9.50;8.30;;;;;;;;;;4954888;28;20212;-74
2022/04/04 13:27:46;;;;;;;8.27;6.97;;;;;;;;;;4955102;28;20427;-74
2022/04/04 13:30:13;;;;;;;7.90;7.10;;;;;;;;;;4954806;28;20415;-75
2022/04/04 13:32:40;;;;;;;6.75;6.05;;;;;;;;;;4954899;28;20955;-73
2022/04/04 13:35:06;;;;;;;10.70;7.55;;;;;;;;;;4955063;28;20242;-74
2022/04/04 13:37:32;;;;;;;9.30;7.30;;;;;;;;;;4954986;28;20600;-74
2022/04/04 13:39:59;;;;;;;7.63;5.82;;;;;;;;;;4955015;28;20547;-75
2022/04/04 13:42:25;;;;;;;8.10;6.50;;;;;;;;;;4954388;28;20208;-73
2022/04/04 13:44:51;;;;;;;13.00;6.90;;;;;;;;;;4954801;28;20211;-75
2022/04/04 13:47:18;;;;;;;9.95;8.45;;;;;;;;;;4954777;28;20179;-74
2022/04/04 13:49:44;;;;;;;10.77;7.28;;;;;;;;;;4954993;28;20191;-74
2022/04/04 13:52:13;;;;;;;7.07;6.03;;;;;;;;;;4954452;28;20247;-74
2022/04/04 13:54:39;;;;;;;9.70;6.95;;;;;;;;;;4953890;28;20259;-74
2022/04/04 13:57:05;;;;;;;9.05;6.55;;;;;;;;;;4954936;28;20213;-75
2022/04/04 13:59:32;;;;;;;7.00;5.63;;;;;;;;;;4954770;28;20183;-74
2022/04/04 14:01:58;;;;;;;6.97;6.28;;;;;;;;;;4954243;28;20220;-74
2022/04/04 14:04:24;;;;;;;6.28;5.63;;;;;;;;;;4954862;28;20648;-74
2022/04/04 14:06:50;;;;;;;5.93;5.27;;;;;;;;;;4954507;28;20216;-75
2022/04/04 14:09:17;;;;;;;8.77;6.63;;;;;;;;;;4954557;28;20760;-74
2022/04/04 14:11:43;;;;;;;8.57;6.30;;;;;;;;;;4954247;28;20257;-74
2022/04/04 14:14:11;;;;;;;7.47;6.65;;;;;;;;;;4954637;28;20175;-74
2022/04/04 14:16:39;;;;;;;5.80;5.30;;;;;;;;;;4954622;28;20266;-74
2022/04/04 14:19:05;;;;;;;6.75;6.05;;;;;;;;;;4954644;28;20169;-75
2022/04/04 14:21:31;;;;;;;6.65;5.30;;;;;;;;;;4954100;28;20211;-74
2022/04/04 14:23:57;;;;;;;6.30;5.70;;;;;;;;;;4954029;28;20310;-73
2022/04/04 14:26:23;;;;;;;9.65;6.68;;;;;;;;;;4954159;28;20462;-74
2022/04/04 14:28:49;;;;;;;5.32;4.53;;;;;;;;;;4957630;28;20180;-74
2022/04/04 14:31:15;;;;;;;6.93;5.87;;;;;;;;;;4957570;28;20203;-74
2022/04/04 14:33:41;;;;;;;7.10;6.30;;;;;;;;;;4957929;28;20783;-74
2022/04/04 14:36:08;;;;;;;6.70;5.75;;;;;;;;;;4957809;28;20199;-74
2022/04/04 14:38:37;;;;;;;5.45;4.13;;;;;;;;;;4958245;28;20681;-73
2022/04/04 14:41:03;;;;;;;9.10;5.60;;;;;;;;;;4957647;28;20271;-74